Janauba, Brazil
Current Conditions -  °F | °C
As of 12:00 AM on Friday 21 Nov 2014 (Local Time) from SBMK Reporting Station
Clear Clear  
Wind Chill: 73°   Ceiling: Unl
Heat Index: 73°   Visibility: 6mi
Dew Point: 61°   Wind: 6mph
Humidity: 65%   Direction: 90°E
Pressure: 30.06"   Gusts: NA
Location:  15.8°S, 43.31°W
Report Text: SBMK 210200Z 09005KT CAVOK 23/16 Q1018
Loading
Personal Weather Stations






























Interactive Weather Map New forecast layout! Learn more

10-Day Weather Forecast

Advertisements
Track Severe Weather on mobile